Time;durP1;ratioP1;P1;durP2;ratioP2;P2;SDS_P1;SDS_P2;PMS_P1;PMS_P2;Temp;Humidity;BMP_temperature;BMP_pressure;BME280_temperature;BME280_humidity;BME280_pressure;Samples;Min_cycle;Max_cycle;Signal;HPM_P1;HPM_P2
2022/08/17 00:00:14;;;;;;;7.20;5.70;;;19.10;89.60;;;;;;5034920;28;20555;-71
2022/08/17 00:03:04;;;;;;;8.87;5.23;;;19.10;89.70;;;;;;5027291;28;21073;-71
2022/08/17 00:05:53;;;;;;;8.67;5.10;;;19.20;90.00;;;;;;5034025;28;20946;-71
2022/08/17 00:08:42;;;;;;;9.80;5.80;;;19.10;90.00;;;;;;5033420;28;21267;-71
2022/08/17 00:11:32;;;;;;;6.60;5.90;;;19.10;90.10;;;;;;5037658;28;21036;-71
2022/08/17 00:14:19;;;;;;;6.80;5.73;;;19.00;90.30;;;;;;5027162;28;20509;-70
2022/08/17 00:17:05;;;;;;;6.60;6.00;;;19.20;90.20;;;;;;5039641;28;20431;-71
2022/08/17 00:19:50;;;;;;;7.17;5.90;;;19.00;90.40;;;;;;5037486;28;20437;-71
2022/08/17 00:22:36;;;;;;;11.67;5.70;;;18.90;91.10;;;;;;5034323;28;20440;-71
2022/08/17 00:25:22;;;;;;;9.47;6.17;;;19.00;90.90;;;;;;5034082;28;20431;-71
2022/08/17 00:28:09;;;;;;;6.10;5.50;;;19.00;90.90;;;;;;5039048;28;20428;-71
2022/08/17 00:30:55;;;;;;;6.47;5.73;;;19.20;90.80;;;;;;5030543;28;20534;-70
2022/08/17 00:33:44;;;;;;;6.67;5.37;;;19.30;90.40;;;;;;5029122;28;20957;-70
2022/08/17 00:36:30;;;;;;;6.20;5.60;;;19.40;90.30;;;;;;5032724;28;20436;-71
2022/08/17 00:39:16;;;;;;;6.67;6.07;;;19.30;90.30;;;;;;5032464;28;21038;-71
2022/08/17 00:42:01;;;;;;;6.57;5.73;;;19.30;90.20;;;;;;5026545;28;21225;-71
2022/08/17 00:44:48;;;;;;;6.27;5.30;;;19.30;90.30;;;;;;5035273;28;20562;-71
2022/08/17 00:47:34;;;;;;;8.20;5.60;;;19.40;90.20;;;;;;5032375;28;20505;-71
2022/08/17 00:50:20;;;;;;;8.13;5.60;;;19.30;90.20;;;;;;5036557;28;20476;-71
2022/08/17 00:53:06;;;;;;;9.60;5.73;;;19.10;90.40;;;;;;5034276;28;20436;-71
2022/08/17 00:55:53;;;;;;;8.23;6.00;;;19.20;90.60;;;;;;5028771;28;20556;-71
2022/08/17 00:58:39;;;;;;;8.00;5.90;;;19.20;90.80;;;;;;5036792;28;20431;-71
2022/08/17 01:01:27;;;;;;;8.20;5.77;;;19.10;90.90;;;;;;5029433;28;20467;-71
2022/08/17 01:04:13;;;;;;;6.13;5.53;;;19.10;90.90;;;;;;5032363;28;21053;-71
2022/08/17 01:07:01;;;;;;;6.03;5.33;;;18.90;90.80;;;;;;5038353;28;20436;-71
2022/08/17 01:09:48;;;;;;;6.00;5.40;;;19.00;91.10;;;;;;5032270;28;20510;-71
2022/08/17 01:12:34;;;;;;;6.90;6.03;;;19.00;90.90;;;;;;5030477;28;20500;-71
2022/08/17 01:15:20;;;;;;;6.90;6.20;;;18.90;91.00;;;;;;5038816;28;20427;-71
2022/08/17 01:18:09;;;;;;;7.27;5.73;;;18.80;91.10;;;;;;5035482;28;21028;-71
2022/08/17 01:20:57;;;;;;;6.50;5.90;;;18.70;91.60;;;;;;5032017;28;20476;-71
2022/08/17 01:23:44;;;;;;;6.63;6.00;;;18.80;91.80;;;;;;5033955;28;20490;-71
2022/08/17 01:26:32;;;;;;;6.00;5.40;;;18.80;91.80;;;;;;5030854;28;20583;-71
2022/08/17 01:29:18;;;;;;;7.07;6.37;;;18.70;92.40;;;;;;5027540;28;20965;-71
2022/08/17 01:32:06;;;;;;;8.63;6.33;;;18.70;92.30;;;;;;5027899;28;20476;-71
2022/08/17 01:34:53;;;;;;;7.50;6.53;;;18.70;92.40;;;;;;5036623;28;20445;-71
2022/08/17 01:37:41;;;;;;;7.13;5.87;;;18.70;92.40;;;;;;5029146;28;20790;-71
2022/08/17 01:40:34;;;;;;;10.23;6.87;;;18.60;92.50;;;;;;5029150;28;20869;-70
2022/08/17 01:43:23;;;;;;;7.40;6.70;;;18.70;92.60;;;;;;5033321;28;20546;-71
2022/08/17 01:46:14;;;;;;;8.90;6.50;;;18.80;93.00;;;;;;5033480;28;20428;-71
2022/08/17 01:49:00;;;;;;;9.43;6.37;;;18.80;92.80;;;;;;5032423;28;20435;-71
2022/08/17 01:51:46;;;;;;;6.60;6.00;;;18.80;92.60;;;;;;5028242;28;20480;-71
2022/08/17 01:54:32;;;;;;;7.40;6.60;;;18.70;92.60;;;;;;5038670;28;20575;-71
2022/08/17 01:57:19;;;;;;;8.00;6.30;;;18.70;92.80;;;;;;5035561;28;20933;-71
2022/08/17 02:00:08;;;;;;;8.30;7.03;;;18.60;92.70;;;;;;5029474;28;20462;-71
2022/08/17 02:02:54;;;;;;;9.17;6.13;;;18.50;92.90;;;;;;5033587;28;20439;-71
2022/08/17 02:05:40;;;;;;;8.63;6.80;;;18.50;93.40;;;;;;5032374;28;20428;-70
2022/08/17 02:08:26;;;;;;;7.83;6.33;;;18.40;93.60;;;;;;5033028;28;20929;-71
2022/08/17 02:11:15;;;;;;;11.60;6.80;;;18.30;93.70;;;;;;5027709;28;20488;-71
2022/08/17 02:14:03;;;;;;;7.43;6.60;;;18.30;94.50;;;;;;5038761;28;20474;-71
2022/08/17 02:16:49;;;;;;;7.40;6.53;;;18.20;94.80;;;;;;5031655;28;21081;-71
2022/08/17 02:19:35;;;;;;;11.20;6.37;;;18.10;95.50;;;;;;5032686;28;20456;-71
2022/08/17 02:22:20;;;;;;;7.33;6.40;;;18.10;95.70;;;;;;5031067;28;20452;-71
2022/08/17 02:25:08;;;;;;;9.40;6.30;;;18.10;96.30;;;;;;5032100;28;20421;-71
2022/08/17 02:27:53;;;;;;;7.03;6.40;;;18.20;96.20;;;;;;5032726;28;20424;-71
2022/08/17 02:30:41;;;;;;;6.27;5.67;;;18.40;96.00;;;;;;5026630;28;20534;-71
2022/08/17 02:33:26;;;;;;;7.27;6.47;;;18.50;96.00;;;;;;5029888;28;20471;-71
2022/08/17 02:36:13;;;;;;;8.63;6.20;;;18.60;95.40;;;;;;5039393;28;20531;-70
2022/08/17 02:38:59;;;;;;;6.77;5.53;;;18.50;95.50;;;;;;5029814;28;20447;-71
2022/08/17 02:41:45;;;;;;;11.03;6.13;;;18.50;95.30;;;;;;5033806;28;20970;-70
2022/08/17 02:44:30;;;;;;;8.20;6.57;;;18.50;95.20;;;;;;5030769;28;20424;-71
2022/08/17 02:47:17;;;;;;;7.13;6.43;;;18.40;95.50;;;;;;5033479;28;20567;-71
2022/08/17 02:50:05;;;;;;;6.73;6.13;;;18.50;95.50;;;;;;5029974;28;20588;-71
2022/08/17 02:52:52;;;;;;;8.30;5.67;;;18.50;95.50;;;;;;5035576;28;20474;-71
2022/08/17 02:55:40;;;;;;;6.30;5.37;;;18.50;95.60;;;;;;5028081;28;20406;-71
2022/08/17 02:58:26;;;;;;;7.23;6.53;;;18.50;95.50;;;;;;5031552;28;20425;-71
2022/08/17 03:01:12;;;;;;;7.30;5.90;;;18.40;95.60;;;;;;5027753;28;20439;-71
2022/08/17 03:03:59;;;;;;;6.80;5.87;;;18.30;95.80;;;;;;5035520;28;20428;-71
2022/08/17 03:06:45;;;;;;;8.50;6.87;;;18.30;95.80;;;;;;5033483;28;20424;-71
2022/08/17 03:09:31;;;;;;;6.77;6.17;;;18.20;96.00;;;;;;5023344;28;20552;-71
2022/08/17 03:12:16;;;;;;;7.60;5.60;;;18.20;96.00;;;;;;5034621;28;20483;-71
2022/08/17 03:15:05;;;;;;;6.53;5.80;;;18.10;96.10;;;;;;5035465;28;20444;-71
2022/08/17 03:17:50;;;;;;;10.80;6.60;;;18.10;96.20;;;;;;5032380;28;20440;-71
2022/08/17 03:20:37;;;;;;;6.90;6.20;;;18.10;96.40;;;;;;5030449;28;21029;-71
2022/08/17 03:23:24;;;;;;;9.23;6.00;;;18.10;96.40;;;;;;5032944;28;20424;-71
2022/08/17 03:26:10;;;;;;;7.27;6.57;;;18.00;96.50;;;;;;5031428;28;20432;-70
2022/08/17 03:28:56;;;;;;;9.97;5.90;;;18.00;96.70;;;;;;5027754;28;20470;-70
2022/08/17 03:31:41;;;;;;;7.77;6.53;;;17.90;96.90;;;;;;5032726;28;20980;-70
2022/08/17 03:34:27;;;;;;;10.17;6.70;;;17.90;97.40;;;;;;5039327;28;20997;-71
2022/08/17 03:37:14;;;;;;;8.40;6.70;;;17.90;97.40;;;;;;5036223;28;20533;-71
2022/08/17 03:40:00;;;;;;;9.80;6.63;;;17.90;97.40;;;;;;5030382;28;20460;-71
2022/08/17 03:42:46;;;;;;;8.63;6.23;;;17.90;97.80;;;;;;5038983;28;20432;-71
2022/08/17 03:57:48;;;;;;;7.20;6.50;;;18.40;97.00;;;;;;5031073;28;20440;-71
2022/08/17 04:00:36;;;;;;;8.03;7.00;;;18.40;96.80;;;;;;5034053;28;20506;-71
2022/08/17 04:03:21;;;;;;;7.80;6.97;;;18.40;96.80;;;;;;5035636;28;20428;-70
2022/08/17 04:06:07;;;;;;;7.07;6.33;;;18.30;96.70;;;;;;5040760;28;20474;-70
2022/08/17 04:08:53;;;;;;;6.67;5.97;;;18.20;96.80;;;;;;5028588;28;20476;-71
2022/08/17 04:11:41;;;;;;;15.40;7.43;;;18.10;96.90;;;;;;5038565;28;20825;-71
2022/08/17 04:14:26;;;;;;;24.33;7.70;;;18.00;97.20;;;;;;5033360;28;20400;-70
2022/08/17 04:17:12;;;;;;;21.17;7.67;;;18.00;97.50;;;;;;5032179;28;20683;-71
2022/08/17 04:19:58;;;;;;;12.40;6.07;;;18.00;97.70;;;;;;5031728;28;20519;-71
2022/08/17 04:22:56;;;;;;;18.73;7.50;;;18.10;97.60;;;;;;5035409;28;20424;-71
2022/08/17 04:25:45;;;;;;;15.10;6.97;;;18.00;97.60;;;;;;5031523;28;20446;-70
2022/08/17 04:28:32;;;;;;;12.20;6.23;;;18.00;97.80;;;;;;5027862;28;20455;-71
2022/08/17 04:31:18;;;;;;;14.87;7.30;;;18.10;97.70;;;;;;5036116;28;20479;-71
2022/08/17 04:34:04;;;;;;;8.83;6.30;;;18.00;98.20;;;;;;5039763;28;20574;-71
2022/08/17 04:36:51;;;;;;;7.27;6.67;;;18.00;98.20;;;;;;5034818;28;20436;-71
2022/08/17 04:39:37;;;;;;;10.00;7.00;;;18.00;98.60;;;;;;5035329;28;20471;-71
2022/08/17 04:42:21;;;;;;;9.30;7.03;;;18.00;99.00;;;;;;5043579;28;20443;-71
2022/08/17 04:45:10;;;;;;;10.50;6.27;;;18.00;98.90;;;;;;5037649;28;20416;-71
2022/08/17 04:47:55;;;;;;;8.10;6.47;;;17.90;99.90;;;;;;5028076;28;20525;-71
2022/08/17 04:50:45;;;;;;;7.43;6.63;;;17.90;99.90;;;;;;5028465;28;20468;-70
2022/08/17 04:53:33;;;;;;;7.73;6.00;;;18.10;99.90;;;;;;5035044;28;20420;-70
2022/08/17 04:56:19;;;;;;;7.40;6.70;;;18.20;99.90;;;;;;5029463;28;20420;-71
2022/08/17 04:59:08;;;;;;;7.90;6.43;;;18.20;99.90;;;;;;5032679;28;20451;-71
2022/08/17 05:01:55;;;;;;;8.40;7.23;;;18.20;99.90;;;;;;5037198;28;20448;-71
2022/08/17 05:04:41;;;;;;;8.00;7.10;;;18.40;99.90;;;;;;5037762;28;20428;-70
2022/08/17 05:07:26;;;;;;;7.83;7.03;;;18.40;99.90;;;;;;5027254;28;20456;-70
2022/08/17 05:10:12;;;;;;;10.03;6.50;;;18.40;99.90;;;;;;5032597;28;20431;-71
2022/08/17 05:12:59;;;;;;;6.90;6.10;;;18.50;99.90;;;;;;5033954;28;20615;-70
2022/08/17 05:15:47;;;;;;;7.83;6.80;;;18.50;99.90;;;;;;5033527;28;20572;-71
2022/08/17 05:18:35;;;;;;;11.00;6.40;;;18.60;99.90;;;;;;5023918;28;20460;-71
2022/08/17 05:21:22;;;;;;;7.37;6.10;;;18.70;99.90;;;;;;5034775;28;20476;-71
2022/08/17 05:24:08;;;;;;;7.90;6.90;;;18.90;99.90;;;;;;5034943;28;20514;-70
2022/08/17 05:26:54;;;;;;;6.73;6.13;;;19.10;99.90;;;;;;5031984;28;20473;-71
2022/08/17 05:29:40;;;;;;;8.40;6.20;;;19.30;99.90;;;;;;5037137;28;20432;-71
2022/08/17 05:32:25;;;;;;;8.93;6.03;;;19.50;99.90;;;;;;5038780;28;20479;-71
2022/08/17 05:35:12;;;;;;;12.70;6.80;;;19.60;99.90;;;;;;5032364;28;20424;-71
2022/08/17 05:37:59;;;;;;;7.87;7.07;;;19.70;99.90;;;;;;5025554;28;20440;-71
2022/08/17 05:40:45;;;;;;;8.50;6.80;;;19.70;99.40;;;;;;5039701;28;20456;-71
2022/08/17 05:43:34;;;;;;;12.03;6.33;;;19.80;99.00;;;;;;5038994;28;20426;-71
2022/08/17 05:46:23;;;;;;;8.33;6.50;;;19.90;98.30;;;;;;5028065;28;20460;-71
2022/08/17 05:49:09;;;;;;;7.67;6.60;;;19.80;98.20;;;;;;5030784;28;20433;-71
2022/08/17 05:52:20;;;;;;;7.67;6.63;;;19.70;98.80;;;;;;5030021;28;20668;-71
2022/08/17 05:55:19;;;;;;;9.03;6.20;;;19.70;99.50;;;;;;5033488;28;20945;-71
2022/08/17 05:58:17;;;;;;;6.57;5.97;;;19.80;99.90;;;;;;5028041;28;20464;-71
2022/08/17 06:01:12;;;;;;;21.43;6.47;;;19.90;99.90;;;;;;5035136;28;20484;-71
2022/08/17 06:04:07;;;;;;;7.03;6.30;;;20.00;99.90;;;;;;5038919;28;20431;-71
2022/08/17 06:07:01;;;;;;;6.73;6.13;;;20.10;99.90;;;;;;5030415;28;20953;-71
2022/08/17 06:09:54;;;;;;;7.77;6.63;;;20.20;99.90;;;;;;5031151;28;20433;-71
2022/08/17 06:12:48;;;;;;;9.27;6.97;;;20.30;99.90;;;;;;5037191;28;20604;-71
2022/08/17 06:15:48;;;;;;;11.37;6.30;;;20.40;99.90;;;;;;5032691;28;20552;-71
2022/08/17 06:18:40;;;;;;;20.03;6.77;;;20.50;99.90;;;;;;5031805;28;20428;-71
2022/08/17 06:21:28;;;;;;;11.97;6.60;;;20.70;99.90;;;;;;5033673;28;20452;-71
2022/08/17 06:24:34;;;;;;;7.87;6.87;;;20.80;99.90;;;;;;5035141;28;20425;-71
2022/08/17 06:27:29;;;;;;;8.00;7.13;;;20.90;99.90;;;;;;5027654;28;20859;-71
2022/08/17 06:30:19;;;;;;;11.40;6.90;;;21.00;99.90;;;;;;5036627;28;20540;-71
2022/08/17 06:33:12;;;;;;;10.23;7.87;;;21.10;99.90;;;;;;5034313;28;20471;-71
2022/08/17 06:36:07;;;;;;;9.40;8.10;;;21.20;99.90;;;;;;5026889;28;20452;-71
2022/08/17 06:39:03;;;;;;;10.17;8.00;;;21.20;99.90;;;;;;5033163;28;20563;-71
2022/08/17 06:42:00;;;;;;;14.70;8.67;;;21.30;99.40;;;;;;5038300;28;20445;-71
2022/08/17 06:44:52;;;;;;;14.30;9.07;;;21.40;97.80;;;;;;5033818;28;20471;-71
2022/08/17 06:47:47;;;;;;;11.10;8.63;;;21.50;97.60;;;;;;5028837;28;20424;-71
2022/08/17 06:50:36;;;;;;;11.80;9.83;;;21.60;98.20;;;;;;5026744;28;21004;-71
2022/08/17 06:53:26;;;;;;;13.60;10.17;;;21.70;97.10;;;;;;5034624;28;20552;-71
2022/08/17 06:56:18;;;;;;;13.23;8.83;;;21.80;94.10;;;;;;5023747;28;20825;-71
2022/08/17 06:59:08;;;;;;;10.63;8.53;;;21.90;92.90;;;;;;5036605;28;20425;-71
2022/08/17 07:01:56;;;;;;;14.97;9.57;;;22.00;92.00;;;;;;5038210;28;20443;-71
2022/08/17 07:04:42;;;;;;;16.07;9.20;;;22.10;90.40;;;;;;5035156;28;20532;-71
2022/08/17 07:10:37;;;;;;;10.43;8.33;;;22.20;90.20;;;;;;5037862;28;20454;-71
2022/08/17 07:13:33;;;;;;;12.20;9.13;;;22.20;90.10;;;;;;5032175;28;20615;-71
2022/08/17 07:16:24;;;;;;;10.60;8.90;;;22.20;90.10;;;;;;5026698;28;20447;-71
2022/08/17 07:19:11;;;;;;;8.60;7.73;;;22.20;90.50;;;;;;5035787;28;20431;-71
2022/08/17 07:22:03;;;;;;;9.40;8.10;;;22.30;91.20;;;;;;5035425;28;21066;-71
2022/08/17 07:24:52;;;;;;;10.53;8.00;;;22.30;91.00;;;;;;5034762;28;20483;-71
2022/08/17 07:27:39;;;;;;;11.30;8.33;;;22.30;91.30;;;;;;5043513;28;20436;-71
2022/08/17 07:30:27;;;;;;;9.90;8.50;;;22.30;91.00;;;;;;5038600;28;20428;-71
2022/08/17 07:33:16;;;;;;;11.93;8.80;;;22.30;91.20;;;;;;5043750;28;20471;-71
2022/08/17 07:36:04;;;;;;;12.10;8.83;;;22.30;90.70;;;;;;5031875;28;20448;-71
2022/08/17 07:38:55;;;;;;;11.50;8.13;;;22.20;90.50;;;;;;5034917;28;20428;-70
2022/08/17 07:41:42;;;;;;;12.73;8.10;;;22.20;91.20;;;;;;5035787;28;20530;-71
2022/08/17 07:44:28;;;;;;;9.10;7.73;;;22.20;91.80;;;;;;5030575;28;20817;-71
2022/08/17 07:50:27;;;;;;;9.93;7.17;;;22.00;94.10;;;;;;5029623;28;20516;-71
2022/08/17 07:53:18;;;;;;;11.20;7.87;;;22.00;93.30;;;;;;5034610;28;20856;-71
2022/08/17 07:56:04;;;;;;;13.20;8.30;;;22.00;94.00;;;;;;5029252;28;20440;-71
2022/08/17 07:59:06;;;;;;;9.60;7.77;;;22.00;95.90;;;;;;5038267;28;20500;-71
2022/08/17 08:02:17;;;;;;;10.40;8.20;;;22.00;95.40;;;;;;5035551;28;20479;-71
2022/08/17 08:05:07;;;;;;;16.30;8.40;;;22.10;95.10;;;;;;5031415;28;20485;-71
2022/08/17 08:07:57;;;;;;;8.83;7.60;;;22.20;94.70;;;;;;5035151;28;20523;-71
2022/08/17 08:10:56;;;;;;;11.30;8.40;;;22.30;94.80;;;;;;5033703;28;20972;-71
2022/08/17 08:13:44;;;;;;;12.53;8.07;;;22.40;94.30;;;;;;5029692;28;21136;-71
2022/08/17 08:16:29;;;;;;;9.80;7.80;;;22.50;94.10;;;;;;5029910;28;20428;-71
2022/08/17 08:19:16;;;;;;;8.10;7.17;;;22.60;92.00;;;;;;5031663;28;20440;-71
2022/08/17 08:22:06;;;;;;;12.33;8.37;;;22.80;90.70;;;;;;5038908;28;20976;-71
2022/08/17 08:25:04;;;;;;;9.53;7.60;;;22.80;89.30;;;;;;5031865;28;20440;-71
2022/08/17 08:28:05;;;;;;;14.33;7.80;;;22.90;90.00;;;;;;5035806;28;20889;-71
2022/08/17 08:31:03;;;;;;;9.37;6.60;;;23.00;90.20;;;;;;5031854;28;20452;-71
2022/08/17 08:33:59;;;;;;;8.60;6.67;;;23.00;88.80;;;;;;5034282;28;20473;-71
2022/08/17 08:36:53;;;;;;;10.77;7.90;;;23.00;88.60;;;;;;5035420;28;20494;-70
2022/08/17 08:39:48;;;;;;;13.10;7.10;;;23.00;84.70;;;;;;5030183;28;20452;-71
2022/08/17 08:42:42;;;;;;;9.87;6.87;;;23.00;85.00;;;;;;5037807;28;20448;-71
2022/08/17 08:45:38;;;;;;;12.80;7.20;;;23.00;86.50;;;;;;5026077;28;20445;-71
2022/08/17 08:48:42;;;;;;;11.37;7.50;;;23.00;88.60;;;;;;5032094;28;20421;-71
2022/08/17 08:51:37;;;;;;;8.27;7.03;;;22.90;86.30;;;;;;5031273;28;20464;-71
2022/08/17 08:54:36;;;;;;;8.67;7.00;;;22.80;85.90;;;;;;5027594;28;20495;-71
2022/08/17 08:57:27;;;;;;;12.10;7.27;;;22.80;84.70;;;;;;5040657;28;20419;-71
2022/08/17 09:00:16;;;;;;;10.80;8.50;;;22.80;87.00;;;;;;5033486;28;20937;-71
2022/08/17 09:03:34;;;;;;;10.47;7.73;;;22.90;89.90;;;;;;5036461;28;20526;-71
2022/08/17 09:06:37;;;;;;;10.87;7.30;;;22.90;90.50;;;;;;5032650;28;20433;-71
2022/08/17 09:09:29;;;;;;;11.03;7.57;;;22.90;90.90;;;;;;5030031;28;20427;-71
2022/08/17 09:12:21;;;;;;;8.83;7.90;;;22.90;91.90;;;;;;5034788;28;20473;-71
2022/08/17 09:15:12;;;;;;;13.03;7.30;;;22.90;92.70;;;;;;5032385;28;20441;-71
2022/08/17 09:18:05;;;;;;;11.13;7.60;;;22.90;93.20;;;;;;5034933;28;20431;-71
2022/08/17 09:20:58;;;;;;;13.70;6.90;;;22.90;93.80;;;;;;5035374;28;20452;-71
2022/08/17 09:23:48;;;;;;;8.37;7.50;;;22.90;93.70;;;;;;5032590;28;20456;-71
2022/08/17 09:26:40;;;;;;;11.53;7.70;;;22.90;91.70;;;;;;5036400;28;20515;-71
2022/08/17 09:29:28;;;;;;;8.27;6.73;;;22.90;92.00;;;;;;5040966;28;20424;-71
2022/08/17 09:32:19;;;;;;;8.60;6.93;;;23.00;93.00;;;;;;5035590;28;20447;-71
2022/08/17 09:35:15;;;;;;;8.57;7.43;;;23.00;92.70;;;;;;5036367;28;20453;-71
2022/08/17 09:38:14;;;;;;;8.60;7.03;;;23.10;90.20;;;;;;5034086;28;20471;-71
2022/08/17 09:41:12;;;;;;;10.30;7.57;;;23.10;88.60;;;;;;5036519;28;20962;-71
2022/08/17 09:44:02;;;;;;;10.03;8.47;;;23.20;88.60;;;;;;5027309;28;20540;-71
2022/08/17 09:46:53;;;;;;;15.13;7.13;;;23.20;88.40;;;;;;5028416;28;20560;-71
2022/08/17 09:49:45;;;;;;;9.80;7.97;;;23.20;87.70;;;;;;5029757;28;20433;-71
2022/08/17 09:52:31;;;;;;;10.03;7.77;;;23.20;86.80;;;;;;5028745;28;20480;-71
2022/08/17 09:55:19;;;;;;;8.40;7.30;;;23.30;89.20;;;;;;5030086;28;20435;-71
2022/08/17 09:58:16;;;;;;;13.60;6.93;;;23.30;87.40;;;;;;5039161;28;20428;-71
2022/08/17 10:01:08;;;;;;;7.60;6.90;;;23.30;87.20;;;;;;5032962;28;20917;-71
2022/08/17 10:04:22;;;;;;;14.17;7.60;;;23.40;87.30;;;;;;5027653;28;20440;-71
2022/08/17 10:07:17;;;;;;;7.23;6.53;;;23.30;90.50;;;;;;5037538;28;20436;-71
2022/08/17 10:10:11;;;;;;;8.50;6.03;;;23.40;90.00;;;;;;5032779;28;20435;-71
2022/08/17 10:13:04;;;;;;;14.13;7.10;;;23.40;83.60;;;;;;5026645;28;20990;-71
2022/08/17 10:15:58;;;;;;;6.60;5.67;;;23.50;85.10;;;;;;5034538;28;20430;-71
2022/08/17 10:18:49;;;;;;;7.83;6.00;;;23.70;82.20;;;;;;5031211;28;20771;-71
2022/08/17 10:27:54;;;;;;;6.87;6.13;;;23.80;79.90;;;;;;5034711;28;20514;-72
2022/08/17 10:30:47;;;;;;;8.10;5.43;;;23.90;81.30;;;;;;5031499;28;20452;-71
2022/08/17 10:33:43;;;;;;;9.97;6.20;;;23.90;79.40;;;;;;5035072;28;20622;-71
2022/08/17 10:36:41;;;;;;;8.10;5.57;;;24.00;77.70;;;;;;5033904;28;20445;-71
2022/08/17 10:39:36;;;;;;;8.40;4.90;;;23.90;77.30;;;;;;5034070;28;20431;-71
2022/08/17 10:42:28;;;;;;;11.03;6.03;;;23.90;74.90;;;;;;5034493;28;20545;-71
2022/08/17 10:45:19;;;;;;;9.40;5.57;;;23.90;72.80;;;;;;5029087;28;20444;-71
2022/08/17 10:48:29;;;;;;;17.13;6.50;;;23.90;72.50;;;;;;5036024;28;20941;-71
2022/08/17 10:51:36;;;;;;;10.13;5.73;;;23.90;71.70;;;;;;5028789;28;20599;-71
2022/08/17 10:54:39;;;;;;;13.03;5.70;;;23.70;71.00;;;;;;5048067;22;20538;-71
2022/08/17 10:57:40;;;;;;;8.07;7.27;;;23.60;70.60;;;;;;5037448;28;20967;-71
2022/08/17 11:01:03;;;;;;;11.07;6.30;;;23.60;71.00;;;;;;5038754;28;20466;-70
2022/08/17 11:03:53;;;;;;;18.53;8.20;;;23.60;71.00;;;;;;5033079;28;20435;-71
2022/08/17 11:07:01;;;;;;;14.80;7.90;;;23.50;71.90;;;;;;5028579;28;20424;-71
2022/08/17 11:10:16;;;;;;;12.63;7.93;;;23.40;72.80;;;;;;5027824;28;20429;-70
2022/08/17 11:13:10;;;;;;;11.90;8.07;;;23.30;73.10;;;;;;5017743;28;20477;-71
2022/08/17 11:16:07;;;;;;;13.43;8.47;;;23.20;75.00;;;;;;5013278;28;20428;-71
2022/08/17 11:19:21;;;;;;;15.30;8.40;;;23.20;77.20;;;;;;5018519;28;20428;-71
2022/08/17 11:22:42;;;;;;;16.53;8.10;;;23.20;78.50;;;;;;5013707;28;20453;-71
2022/08/17 11:25:38;;;;;;;20.43;8.50;;;23.10;79.00;;;;;;4970095;28;20437;-70
2022/08/17 11:28:33;;;;;;;16.77;8.00;;;23.20;82.20;;;;;;5021910;28;20523;-71
2022/08/17 11:31:28;;;;;;;11.00;8.27;;;23.30;83.60;;;;;;5021962;28;20948;-70
2022/08/17 11:34:20;;;;;;;8.67;7.13;;;23.30;79.20;;;;;;5034366;28;20518;-71
2022/08/17 11:37:32;;;;;;;13.67;8.03;;;23.40;79.30;;;;;;5022913;28;20428;-70
2022/08/17 11:40:47;;;;;;;10.60;7.40;;;23.40;79.30;;;;;;5021497;28;20424;-70
2022/08/17 11:43:59;;;;;;;14.00;6.90;;;23.60;79.10;;;;;;5018534;28;20544;-71
2022/08/17 11:54:05;;;;;;;8.23;6.47;;;24.10;77.30;;;;;;5020514;28;20528;-70
2022/08/17 11:56:51;;;;;;;7.10;6.00;;;24.30;70.50;;;;;;5013691;28;20927;-71
2022/08/17 11:59:59;;;;;;;7.87;6.07;;;24.40;70.30;;;;;;5021045;28;20493;-71
2022/08/17 12:02:47;;;;;;;9.20;5.87;;;24.50;69.50;;;;;;5013201;28;20592;-71
2022/08/17 12:05:36;;;;;;;6.33;5.73;;;24.70;68.80;;;;;;5017877;28;20481;-71
2022/08/17 12:08:22;;;;;;;7.47;5.73;;;24.80;67.70;;;;;;5017456;28;20465;-71
2022/08/17 12:11:17;;;;;;;7.43;5.20;;;24.90;64.20;;;;;;5006890;28;20468;-71
2022/08/17 12:14:03;;;;;;;16.17;5.83;;;25.00;60.20;;;;;;5021359;28;20672;-71
2022/08/17 12:17:00;;;;;;;5.33;4.83;;;25.00;60.50;;;;;;5022669;28;20425;-71
2022/08/17 12:19:45;;;;;;;7.03;4.97;;;25.10;61.50;;;;;;5009725;28;20426;-70
2022/08/17 12:22:42;;;;;;;7.90;5.10;;;25.10;55.90;;;;;;5011896;28;20445;-71
2022/08/17 12:25:34;;;;;;;7.67;4.90;;;25.00;55.90;;;;;;5016208;28;20485;-71
2022/08/17 12:28:24;;;;;;;7.03;5.20;;;24.90;56.60;;;;;;5018554;28;20472;-71
2022/08/17 12:31:21;;;;;;;6.20;5.60;;;25.00;56.40;;;;;;5013421;28;20500;-71
2022/08/17 12:34:15;;;;;;;11.77;5.57;;;25.00;54.60;;;;;;5021394;28;20477;-71
2022/08/17 12:37:04;;;;;;;8.70;4.73;;;25.10;54.90;;;;;;5018294;28;20432;-71
2022/08/17 12:39:58;;;;;;;6.50;4.97;;;25.10;55.00;;;;;;5009280;28;20450;-71
2022/08/17 12:42:55;;;;;;;6.23;5.10;;;25.20;51.80;;;;;;5017461;28;20532;-71
2022/08/17 12:45:42;;;;;;;7.43;4.93;;;25.20;53.00;;;;;;5011908;28;20938;-71
2022/08/17 12:48:29;;;;;;;6.33;5.10;;;25.30;52.70;;;;;;5014037;28;20559;-71
2022/08/17 12:51:16;;;;;;;6.23;5.43;;;25.30;51.50;;;;;;5014341;28;20460;-71
2022/08/17 12:54:02;;;;;;;6.73;4.80;;;25.30;50.30;;;;;;5016546;28;21222;-71
2022/08/17 12:56:49;;;;;;;9.90;4.60;;;25.30;50.50;;;;;;5019638;28;20436;-71
2022/08/17 12:59:39;;;;;;;6.57;5.90;;;25.40;50.10;;;;;;5010139;28;20837;-71
2022/08/17 13:02:31;;;;;;;6.60;5.23;;;25.30;50.00;;;;;;5017388;28;20429;-71
2022/08/17 13:05:23;;;;;;;10.77;5.57;;;25.40;49.40;;;;;;5019835;28;20496;-70
2022/08/17 13:08:14;;;;;;;6.60;4.90;;;25.40;48.50;;;;;;5013032;28;20424;-71
2022/08/17 13:11:02;;;;;;;5.40;4.40;;;25.40;49.10;;;;;;5013946;28;20449;-71
2022/08/17 13:13:53;;;;;;;8.60;4.97;;;25.50;49.60;;;;;;5017133;28;20835;-71
2022/08/17 13:16:39;;;;;;;10.97;5.50;;;25.50;52.20;;;;;;5011714;28;20424;-71
2022/08/17 13:19:26;;;;;;;7.27;4.87;;;25.50;52.90;;;;;;5000095;28;20544;-71
2022/08/17 13:22:12;;;;;;;6.17;5.33;;;25.50;53.30;;;;;;5011031;28;20421;-71
2022/08/17 13:25:02;;;;;;;5.80;4.93;;;25.60;50.00;;;;;;5011577;28;20520;-71
2022/08/17 13:27:51;;;;;;;7.10;5.30;;;25.60;51.30;;;;;;5016565;28;20424;-71
2022/08/17 13:30:38;;;;;;;9.83;5.30;;;25.80;49.10;;;;;;5004424;28;20461;-71
2022/08/17 13:33:25;;;;;;;5.60;5.00;;;25.90;49.40;;;;;;5014375;28;20441;-71
2022/08/17 13:36:10;;;;;;;8.80;5.63;;;26.10;49.70;;;;;;5012136;28;20459;-71
2022/08/17 13:39:07;;;;;;;7.30;4.90;;;26.30;48.70;;;;;;5010054;28;20445;-71
2022/08/17 13:41:54;;;;;;;7.70;5.40;;;26.60;48.10;;;;;;5010157;28;20437;-71
2022/08/17 13:44:41;;;;;;;11.97;4.60;;;26.90;47.80;;;;;;5014034;28;20429;-71
2022/08/17 13:47:28;;;;;;;8.73;5.50;;;27.30;44.70;;;;;;5017443;28;20422;-71
2022/08/17 13:50:21;;;;;;;9.40;4.93;;;27.70;40.30;;;;;;5012571;28;21008;-71
2022/08/17 13:53:17;;;;;;;5.00;4.50;;;28.00;37.30;;;;;;5025225;28;20449;-71
2022/08/17 13:56:06;;;;;;;8.97;4.83;;;28.30;37.10;;;;;;5021809;28;20420;-71
2022/08/17 13:58:55;;;;;;;6.27;5.13;;;28.70;36.00;;;;;;5009819;28;20521;-71
2022/08/17 14:01:43;;;;;;;6.23;4.53;;;28.70;33.50;;;;;;5012041;28;20796;-71
2022/08/17 14:04:32;;;;;;;6.63;4.23;;;28.70;33.50;;;;;;5012071;28;20454;-71
2022/08/17 14:07:28;;;;;;;11.00;4.80;;;28.70;32.60;;;;;;5011952;28;20421;-71
2022/08/17 14:10:16;;;;;;;7.50;5.07;;;28.90;32.00;;;;;;5004908;28;21187;-71
2022/08/17 14:13:02;;;;;;;6.73;4.83;;;29.20;33.10;;;;;;5014994;28;20550;-71
2022/08/17 14:15:48;;;;;;;4.80;3.90;;;29.30;32.90;;;;;;5016621;28;20896;-71
2022/08/17 14:18:33;;;;;;;5.97;4.57;;;29.40;31.50;;;;;;5001114;28;20445;-71
2022/08/17 14:21:20;;;;;;;6.77;4.33;;;29.40;29.90;;;;;;5013786;28;20793;-71
2022/08/17 14:24:10;;;;;;;7.93;4.27;;;29.40;30.70;;;;;;5015762;28;20444;-71
2022/08/17 14:26:57;;;;;;;8.93;4.20;;;29.30;30.60;;;;;;5010955;28;20421;-71
2022/08/17 14:29:44;;;;;;;7.30;4.67;;;29.30;31.70;;;;;;5014678;28;20500;-70
2022/08/17 14:32:32;;;;;;;5.10;4.40;;;29.20;31.50;;;;;;5007186;28;20422;-71
2022/08/17 14:35:18;;;;;;;6.53;4.93;;;29.40;31.70;;;;;;5012270;28;20476;-71
2022/08/17 14:38:06;;;;;;;5.90;4.43;;;29.40;30.20;;;;;;5009726;28;20576;-71
2022/08/17 14:40:52;;;;;;;4.77;4.00;;;29.50;29.30;;;;;;5014259;28;20459;-71
2022/08/17 14:43:38;;;;;;;6.30;5.27;;;29.60;29.00;;;;;;5015332;28;20973;-71
2022/08/17 14:46:25;;;;;;;7.87;5.00;;;29.70;29.20;;;;;;5016558;28;21004;-71
2022/08/17 14:49:14;;;;;;;6.27;4.63;;;29.80;29.30;;;;;;5001878;28;20837;-71
2022/08/17 14:52:00;;;;;;;7.53;4.50;;;29.90;29.00;;;;;;5016872;28;20898;-71
2022/08/17 14:54:50;;;;;;;5.90;4.73;;;29.80;28.30;;;;;;5016360;28;20472;-71
2022/08/17 14:57:35;;;;;;;6.43;5.33;;;29.80;28.50;;;;;;5007865;28;20508;-71
2022/08/17 15:00:21;;;;;;;5.27;4.77;;;30.00;28.30;;;;;;5013085;28;20429;-71
2022/08/17 15:03:06;;;;;;;5.07;4.57;;;29.90;27.20;;;;;;5017525;28;20448;-71
2022/08/17 15:05:53;;;;;;;4.37;3.97;;;29.90;28.20;;;;;;5018329;28;20453;-71
2022/08/17 15:08:38;;;;;;;8.20;5.00;;;29.70;28.00;;;;;;5004681;28;20920;-71
2022/08/17 15:11:25;;;;;;;5.50;4.47;;;29.80;27.30;;;;;;5007565;28;20500;-71
2022/08/17 15:14:11;;;;;;;8.20;4.63;;;29.70;27.00;;;;;;5015160;28;20519;-71